Главная страница
METAR-TAF:

METAR-TAF

Аэропорты :

Арар, Саудовская Аравия

широта: 30-54N, долгота: 041-08E, высота над уровнем моря: 555 м

Текущие метеонаблюдения

Эта сводка был подготовлена 33 минут назад, в 00:00 UTC
Ветер 5 Узел от северно-северо-западный
Температура 23°C
Влажность 23%
Давление 1017 hPa
Видимость 10 км и более
Нет облачности ниже 1500 м, и нет кучево-дождевой облачности

METAR: OERR 190000Z 34005KT CAVOK 23/01 Q1017 NOSIG

Время: 03:33 (00:33 UTC)

Прогноз

Эта сводка был подготовлена 1 час и 33 минут назад, в 23:00 UTC
Прогноз действительный с 19-го 00 UTC до 20-го 06 UTC
Ветер 3 Узел переменных направлений
Видимость 10 км и более
Нет облачности ниже 1500 м, и нет кучево-дождевой облачности
изменения
С 19-го 06 UTC до 19-го 08 UTC
Ветер 10 Узел от восточно-северо-восточный
изменения
С 19-го 18 UTC до 19-го 20 UTC
Ветер 3 Узел переменных направлений

TAF: OERR 182300Z 1900/2006 VRB03KT CAVOK BECMG 1906/1908 07010KT BECMG 1918/1920 VRB03KT

Метеонаблюдения и прогнозы для более 4000 аэропортов (сводки METAR и TAF).

Имеющиеся станции представлены на карте желтыми и красными точками.

Чтобы увидеть название станции, наведите на нее мышь.

Затем щелкните, чтобы увидеть метеонаблюдения и метеопрогнозы.

Управление картой: чтобы увеличить масштаб, щелкните зеленые кнопки с черным крестиком; чтобы уменьшить масштаб, щелкните зеленую кнопку с тире; для просмотра соседних карт щелкайте зеленые стрелки.


METAR-TAF: